sensor_id;sensor_type;location;lat;lon;timestamp;P1;durP1;ratioP1;P2;durP2;ratioP2
11677;SDS011;5895;41.950;24.372;2022-10-26T00:00:42;19.67;;;4.50;;
11677;SDS011;5895;41.950;24.372;2022-10-26T00:03:09;17.52;;;4.22;;
11677;SDS011;5895;41.950;24.372;2022-10-26T00:05:36;17.38;;;4.70;;
11677;SDS011;5895;41.950;24.372;2022-10-26T00:08:05;15.77;;;4.78;;
11677;SDS011;5895;41.950;24.372;2022-10-26T00:10:33;16.00;;;4.53;;
11677;SDS011;5895;41.950;24.372;2022-10-26T00:13:00;16.60;;;4.47;;
11677;SDS011;5895;41.950;24.372;2022-10-26T00:15:28;14.38;;;4.00;;
11677;SDS011;5895;41.950;24.372;2022-10-26T00:17:55;14.52;;;4.95;;
11677;SDS011;5895;41.950;24.372;2022-10-26T00:20:23;16.40;;;4.40;;
11677;SDS011;5895;41.950;24.372;2022-10-26T00:22:50;14.52;;;4.32;;
11677;SDS011;5895;41.950;24.372;2022-10-26T00:25:19;14.40;;;4.32;;
11677;SDS011;5895;41.950;24.372;2022-10-26T00:27:46;18.17;;;4.60;;
11677;SDS011;5895;41.950;24.372;2022-10-26T00:30:13;18.35;;;4.65;;
11677;SDS011;5895;41.950;24.372;2022-10-26T00:32:40;17.23;;;4.50;;
11677;SDS011;5895;41.950;24.372;2022-10-26T00:35:07;13.02;;;4.82;;
11677;SDS011;5895;41.950;24.372;2022-10-26T00:37:35;16.15;;;4.88;;
11677;SDS011;5895;41.950;24.372;2022-10-26T00:40:02;20.83;;;4.80;;
11677;SDS011;5895;41.950;24.372;2022-10-26T00:42:31;17.95;;;4.82;;
11677;SDS011;5895;41.950;24.372;2022-10-26T00:44:59;20.48;;;4.20;;
11677;SDS011;5895;41.950;24.372;2022-10-26T00:47:34;19.88;;;4.63;;
11677;SDS011;5895;41.950;24.372;2022-10-26T00:50:06;20.55;;;4.50;;
11677;SDS011;5895;41.950;24.372;2022-10-26T00:52:36;21.83;;;4.10;;
11677;SDS011;5895;41.950;24.372;2022-10-26T00:55:04;18.15;;;4.50;;
11677;SDS011;5895;41.950;24.372;2022-10-26T00:57:35;17.83;;;4.40;;
11677;SDS011;5895;41.950;24.372;2022-10-26T01:00:03;13.60;;;4.13;;
11677;SDS011;5895;41.950;24.372;2022-10-26T01:02:32;12.98;;;4.68;;
11677;SDS011;5895;41.950;24.372;2022-10-26T01:05:00;16.83;;;4.70;;
11677;SDS011;5895;41.950;24.372;2022-10-26T01:07:29;15.40;;;3.78;;
11677;SDS011;5895;41.950;24.372;2022-10-26T01:09:57;18.25;;;4.47;;
11677;SDS011;5895;41.950;24.372;2022-10-26T01:12:25;14.48;;;3.40;;
11677;SDS011;5895;41.950;24.372;2022-10-26T01:14:53;13.80;;;4.93;;
11677;SDS011;5895;41.950;24.372;2022-10-26T01:17:26;14.18;;;4.65;;
11677;SDS011;5895;41.950;24.372;2022-10-26T01:22:56;16.75;;;4.70;;
11677;SDS011;5895;41.950;24.372;2022-10-26T01:25:37;14.57;;;4.95;;
11677;SDS011;5895;41.950;24.372;2022-10-26T01:28:18;16.85;;;4.63;;
11677;SDS011;5895;41.950;24.372;2022-10-26T01:30:58;12.13;;;4.03;;
11677;SDS011;5895;41.950;24.372;2022-10-26T01:33:32;13.43;;;5.05;;
11677;SDS011;5895;41.950;24.372;2022-10-26T01:36:06;17.27;;;5.20;;
11677;SDS011;5895;41.950;24.372;2022-10-26T01:38:42;19.67;;;6.18;;
11677;SDS011;5895;41.950;24.372;2022-10-26T01:41:20;21.08;;;5.85;;
11677;SDS011;5895;41.950;24.372;2022-10-26T01:43:53;18.20;;;6.90;;
11677;SDS011;5895;41.950;24.372;2022-10-26T01:46:25;14.38;;;4.72;;
11677;SDS011;5895;41.950;24.372;2022-10-26T01:48:56;11.88;;;4.32;;
11677;SDS011;5895;41.950;24.372;2022-10-26T01:51:27;16.55;;;5.05;;
11677;SDS011;5895;41.950;24.372;2022-10-26T01:53:56;13.60;;;5.18;;
11677;SDS011;5895;41.950;24.372;2022-10-26T01:56:24;18.13;;;4.40;;
11677;SDS011;5895;41.950;24.372;2022-10-26T02:02:04;11.10;;;4.50;;
11677;SDS011;5895;41.950;24.372;2022-10-26T02:05:00;17.35;;;4.53;;
11677;SDS011;5895;41.950;24.372;2022-10-26T02:07:43;11.68;;;4.43;;
11677;SDS011;5895;41.950;24.372;2022-10-26T02:10:23;17.30;;;4.20;;
11677;SDS011;5895;41.950;24.372;2022-10-26T02:13:00;15.65;;;3.83;;
11677;SDS011;5895;41.950;24.372;2022-10-26T02:15:32;17.20;;;4.63;;
11677;SDS011;5895;41.950;24.372;2022-10-26T02:18:06;17.58;;;4.97;;
11677;SDS011;5895;41.950;24.372;2022-10-26T02:20:47;14.98;;;4.25;;
11677;SDS011;5895;41.950;24.372;2022-10-26T02:23:18;21.00;;;4.65;;
11677;SDS011;5895;41.950;24.372;2022-10-26T02:25:50;15.98;;;4.95;;
11677;SDS011;5895;41.950;24.372;2022-10-26T02:28:24;16.08;;;4.95;;
11677;SDS011;5895;41.950;24.372;2022-10-26T02:30:56;20.27;;;6.63;;
11677;SDS011;5895;41.950;24.372;2022-10-26T02:33:29;14.70;;;6.00;;
11677;SDS011;5895;41.950;24.372;2022-10-26T02:35:59;17.98;;;5.50;;
11677;SDS011;5895;41.950;24.372;2022-10-26T02:38:28;12.30;;;4.85;;
11677;SDS011;5895;41.950;24.372;2022-10-26T02:40:58;20.80;;;5.18;;
11677;SDS011;5895;41.950;24.372;2022-10-26T02:43:27;18.17;;;5.18;;
11677;SDS011;5895;41.950;24.372;2022-10-26T02:45:58;13.18;;;4.70;;
11677;SDS011;5895;41.950;24.372;2022-10-26T02:48:31;14.32;;;5.28;;
11677;SDS011;5895;41.950;24.372;2022-10-26T02:50:59;13.38;;;4.57;;
11677;SDS011;5895;41.950;24.372;2022-10-26T02:53:30;11.35;;;4.00;;
11677;SDS011;5895;41.950;24.372;2022-10-26T02:56:02;13.10;;;4.40;;
11677;SDS011;5895;41.950;24.372;2022-10-26T02:58:34;19.65;;;4.57;;
11677;SDS011;5895;41.950;24.372;2022-10-26T03:01:06;13.15;;;4.72;;
11677;SDS011;5895;41.950;24.372;2022-10-26T03:03:35;17.92;;;4.18;;
11677;SDS011;5895;41.950;24.372;2022-10-26T03:06:02;10.57;;;4.05;;
11677;SDS011;5895;41.950;24.372;2022-10-26T03:08:30;13.73;;;4.43;;
11677;SDS011;5895;41.950;24.372;2022-10-26T03:10:57;12.70;;;4.57;;
11677;SDS011;5895;41.950;24.372;2022-10-26T03:13:24;14.77;;;4.13;;
11677;SDS011;5895;41.950;24.372;2022-10-26T03:15:53;16.30;;;4.70;;
11677;SDS011;5895;41.950;24.372;2022-10-26T03:18:21;17.48;;;4.65;;
11677;SDS011;5895;41.950;24.372;2022-10-26T03:20:50;11.85;;;4.55;;
11677;SDS011;5895;41.950;24.372;2022-10-26T03:23:17;12.57;;;4.32;;
11677;SDS011;5895;41.950;24.372;2022-10-26T03:25:44;11.82;;;4.47;;
11677;SDS011;5895;41.950;24.372;2022-10-26T03:28:11;16.17;;;4.97;;
11677;SDS011;5895;41.950;24.372;2022-10-26T03:30:39;10.70;;;4.18;;
11677;SDS011;5895;41.950;24.372;2022-10-26T03:33:06;13.43;;;4.50;;
11677;SDS011;5895;41.950;24.372;2022-10-26T03:35:33;19.45;;;4.55;;
11677;SDS011;5895;41.950;24.372;2022-10-26T03:38:02;17.63;;;4.28;;
11677;SDS011;5895;41.950;24.372;2022-10-26T03:40:29;12.25;;;4.60;;
11677;SDS011;5895;41.950;24.372;2022-10-26T03:42:56;11.15;;;4.78;;
11677;SDS011;5895;41.950;24.372;2022-10-26T03:45:23;13.10;;;4.72;;
11677;SDS011;5895;41.950;24.372;2022-10-26T03:47:50;22.77;;;5.05;;
11677;SDS011;5895;41.950;24.372;2022-10-26T03:50:18;15.77;;;5.03;;
11677;SDS011;5895;41.950;24.372;2022-10-26T03:52:47;18.33;;;4.97;;
11677;SDS011;5895;41.950;24.372;2022-10-26T03:55:16;14.38;;;4.47;;
11677;SDS011;5895;41.950;24.372;2022-10-26T03:57:44;15.10;;;4.97;;
11677;SDS011;5895;41.950;24.372;2022-10-26T04:00:13;24.85;;;5.65;;
11677;SDS011;5895;41.950;24.372;2022-10-26T04:02:41;12.75;;;4.53;;
11677;SDS011;5895;41.950;24.372;2022-10-26T04:05:10;18.50;;;5.30;;
11677;SDS011;5895;41.950;24.372;2022-10-26T04:07:38;15.60;;;5.38;;
11677;SDS011;5895;41.950;24.372;2022-10-26T04:10:05;17.73;;;5.03;;
11677;SDS011;5895;41.950;24.372;2022-10-26T04:12:36;16.63;;;5.22;;
11677;SDS011;5895;41.950;24.372;2022-10-26T04:15:04;15.07;;;6.10;;
11677;SDS011;5895;41.950;24.372;2022-10-26T04:17:32;14.63;;;6.45;;
11677;SDS011;5895;41.950;24.372;2022-10-26T04:19:59;16.65;;;6.13;;
11677;SDS011;5895;41.950;24.372;2022-10-26T04:22:27;13.60;;;5.65;;
11677;SDS011;5895;41.950;24.372;2022-10-26T04:24:54;14.65;;;5.75;;
11677;SDS011;5895;41.950;24.372;2022-10-26T04:27:21;20.02;;;10.43;;
11677;SDS011;5895;41.950;24.372;2022-10-26T04:29:49;19.73;;;8.32;;
11677;SDS011;5895;41.950;24.372;2022-10-26T04:32:17;22.05;;;10.52;;
11677;SDS011;5895;41.950;24.372;2022-10-26T04:34:44;12.93;;;6.43;;
11677;SDS011;5895;41.950;24.372;2022-10-26T04:37:11;17.00;;;7.47;;
11677;SDS011;5895;41.950;24.372;2022-10-26T04:39:38;15.15;;;7.22;;
11677;SDS011;5895;41.950;24.372;2022-10-26T04:42:05;16.80;;;6.50;;
11677;SDS011;5895;41.950;24.372;2022-10-26T04:44:33;16.77;;;6.30;;
11677;SDS011;5895;41.950;24.372;2022-10-26T04:47:01;16.10;;;6.95;;
11677;SDS011;5895;41.950;24.372;2022-10-26T04:49:28;11.43;;;6.78;;
11677;SDS011;5895;41.950;24.372;2022-10-26T04:51:55;13.48;;;7.68;;
11677;SDS011;5895;41.950;24.372;2022-10-26T04:54:23;18.02;;;7.22;;
11677;SDS011;5895;41.950;24.372;2022-10-26T04:56:50;77.18;;;52.60;;
11677;SDS011;5895;41.950;24.372;2022-10-26T04:59:17;43.60;;;30.67;;
11677;SDS011;5895;41.950;24.372;2022-10-26T05:01:44;43.97;;;27.75;;
11677;SDS011;5895;41.950;24.372;2022-10-26T05:04:13;25.92;;;15.85;;
11677;SDS011;5895;41.950;24.372;2022-10-26T05:06:40;26.10;;;12.50;;
11677;SDS011;5895;41.950;24.372;2022-10-26T05:09:07;22.02;;;8.50;;
11677;SDS011;5895;41.950;24.372;2022-10-26T05:11:34;14.93;;;7.60;;
11677;SDS011;5895;41.950;24.372;2022-10-26T05:14:01;13.07;;;6.53;;
11677;SDS011;5895;41.950;24.372;2022-10-26T05:16:29;17.48;;;5.93;;
11677;SDS011;5895;41.950;24.372;2022-10-26T05:18:56;19.80;;;5.43;;
11677;SDS011;5895;41.950;24.372;2022-10-26T05:21:24;16.58;;;4.75;;
11677;SDS011;5895;41.950;24.372;2022-10-26T05:23:51;12.27;;;5.72;;
11677;SDS011;5895;41.950;24.372;2022-10-26T05:26:19;14.13;;;5.35;;
11677;SDS011;5895;41.950;24.372;2022-10-26T05:28:47;13.05;;;5.10;;
11677;SDS011;5895;41.950;24.372;2022-10-26T05:31:15;10.73;;;4.65;;
11677;SDS011;5895;41.950;24.372;2022-10-26T05:33:42;11.68;;;4.28;;
11677;SDS011;5895;41.950;24.372;2022-10-26T05:36:09;21.50;;;13.40;;
11677;SDS011;5895;41.950;24.372;2022-10-26T05:38:38;16.70;;;10.02;;
11677;SDS011;5895;41.950;24.372;2022-10-26T05:41:05;19.70;;;8.95;;
11677;SDS011;5895;41.950;24.372;2022-10-26T05:43:32;17.80;;;9.73;;
11677;SDS011;5895;41.950;24.372;2022-10-26T05:45:59;14.35;;;8.70;;
11677;SDS011;5895;41.950;24.372;2022-10-26T05:48:26;26.45;;;11.52;;
11677;SDS011;5895;41.950;24.372;2022-10-26T05:50:57;15.43;;;6.68;;
11677;SDS011;5895;41.950;24.372;2022-10-26T05:53:26;30.52;;;9.60;;
11677;SDS011;5895;41.950;24.372;2022-10-26T05:55:55;30.88;;;19.23;;
11677;SDS011;5895;41.950;24.372;2022-10-26T05:58:23;25.17;;;14.15;;
11677;SDS011;5895;41.950;24.372;2022-10-26T06:00:54;29.73;;;16.67;;
11677;SDS011;5895;41.950;24.372;2022-10-26T06:03:38;20.98;;;11.27;;
11677;SDS011;5895;41.950;24.372;2022-10-26T06:06:17;25.63;;;14.68;;
11677;SDS011;5895;41.950;24.372;2022-10-26T06:08:45;27.70;;;10.60;;
11677;SDS011;5895;41.950;24.372;2022-10-26T06:11:15;26.17;;;14.80;;
11677;SDS011;5895;41.950;24.372;2022-10-26T06:13:42;21.70;;;13.07;;
11677;SDS011;5895;41.950;24.372;2022-10-26T06:16:16;25.17;;;13.65;;
11677;SDS011;5895;41.950;24.372;2022-10-26T06:18:57;24.00;;;10.77;;
11677;SDS011;5895;41.950;24.372;2022-10-26T06:21:38;12.63;;;5.68;;
11677;SDS011;5895;41.950;24.372;2022-10-26T06:24:15;13.57;;;4.65;;
11677;SDS011;5895;41.950;24.372;2022-10-26T06:26:52;15.75;;;6.03;;
11677;SDS011;5895;41.950;24.372;2022-10-26T06:29:29;19.55;;;5.35;;
11677;SDS011;5895;41.950;24.372;2022-10-26T06:32:02;17.05;;;5.38;;
11677;SDS011;5895;41.950;24.372;2022-10-26T06:34:31;16.95;;;5.13;;
11677;SDS011;5895;41.950;24.372;2022-10-26T06:37:00;13.95;;;4.78;;
11677;SDS011;5895;41.950;24.372;2022-10-26T06:39:30;12.18;;;3.78;;
11677;SDS011;5895;41.950;24.372;2022-10-26T06:42:03;26.17;;;8.48;;
11677;SDS011;5895;41.950;24.372;2022-10-26T06:44:31;48.42;;;9.57;;
11677;SDS011;5895;41.950;24.372;2022-10-26T06:47:01;21.48;;;9.30;;
11677;SDS011;5895;41.950;24.372;2022-10-26T06:49:33;24.98;;;13.95;;
11677;SDS011;5895;41.950;24.372;2022-10-26T06:52:04;18.85;;;9.85;;
11677;SDS011;5895;41.950;24.372;2022-10-26T06:54:44;15.00;;;7.65;;
11677;SDS011;5895;41.950;24.372;2022-10-26T06:57:16;15.45;;;7.75;;
11677;SDS011;5895;41.950;24.372;2022-10-26T06:59:46;24.55;;;10.43;;
11677;SDS011;5895;41.950;24.372;2022-10-26T07:02:16;19.85;;;5.65;;
11677;SDS011;5895;41.950;24.372;2022-10-26T07:04:43;16.45;;;5.28;;
11677;SDS011;5895;41.950;24.372;2022-10-26T07:07:11;14.30;;;5.20;;
11677;SDS011;5895;41.950;24.372;2022-10-26T07:09:41;11.63;;;4.70;;
11677;SDS011;5895;41.950;24.372;2022-10-26T07:12:08;13.25;;;4.30;;
11677;SDS011;5895;41.950;24.372;2022-10-26T07:14:37;14.13;;;4.80;;
11677;SDS011;5895;41.950;24.372;2022-10-26T07:17:04;12.38;;;4.80;;
11677;SDS011;5895;41.950;24.372;2022-10-26T07:19:32;13.93;;;5.10;;
11677;SDS011;5895;41.950;24.372;2022-10-26T07:21:59;9.32;;;4.10;;
11677;SDS011;5895;41.950;24.372;2022-10-26T07:24:26;11.50;;;4.00;;
11677;SDS011;5895;41.950;24.372;2022-10-26T07:26:53;17.13;;;4.43;;
11677;SDS011;5895;41.950;24.372;2022-10-26T07:29:21;10.43;;;3.85;;
11677;SDS011;5895;41.950;24.372;2022-10-26T07:31:50;17.35;;;4.18;;
11677;SDS011;5895;41.950;24.372;2022-10-26T07:34:18;12.93;;;4.72;;
11677;SDS011;5895;41.950;24.372;2022-10-26T07:36:45;12.20;;;4.93;;
11677;SDS011;5895;41.950;24.372;2022-10-26T07:39:12;10.93;;;3.35;;
11677;SDS011;5895;41.950;24.372;2022-10-26T07:41:39;13.57;;;3.80;;
11677;SDS011;5895;41.950;24.372;2022-10-26T07:44:06;7.88;;;3.50;;
11677;SDS011;5895;41.950;24.372;2022-10-26T07:46:33;14.20;;;4.68;;
11677;SDS011;5895;41.950;24.372;2022-10-26T07:49:02;19.52;;;3.70;;
11677;SDS011;5895;41.950;24.372;2022-10-26T07:51:29;25.73;;;9.30;;
11677;SDS011;5895;41.950;24.372;2022-10-26T07:53:56;15.20;;;4.00;;
11677;SDS011;5895;41.950;24.372;2022-10-26T07:56:23;9.95;;;3.20;;
11677;SDS011;5895;41.950;24.372;2022-10-26T07:58:51;12.57;;;3.80;;
11677;SDS011;5895;41.950;24.372;2022-10-26T08:01:18;9.35;;;3.30;;
11677;SDS011;5895;41.950;24.372;2022-10-26T08:03:46;7.65;;;3.63;;
11677;SDS011;5895;41.950;24.372;2022-10-26T08:06:14;12.07;;;3.60;;
11677;SDS011;5895;41.950;24.372;2022-10-26T08:08:42;14.48;;;3.15;;
11677;SDS011;5895;41.950;24.372;2022-10-26T08:11:09;7.50;;;2.92;;
11677;SDS011;5895;41.950;24.372;2022-10-26T08:13:36;12.38;;;3.22;;
11677;SDS011;5895;41.950;24.372;2022-10-26T08:16:04;12.20;;;3.65;;
11677;SDS011;5895;41.950;24.372;2022-10-26T08:18:32;10.02;;;3.50;;
11677;SDS011;5895;41.950;24.372;2022-10-26T08:21:00;10.10;;;3.22;;
11677;SDS011;5895;41.950;24.372;2022-10-26T08:23:30;9.77;;;3.28;;
11677;SDS011;5895;41.950;24.372;2022-10-26T08:25:58;7.03;;;3.10;;
11677;SDS011;5895;41.950;24.372;2022-10-26T08:28:25;9.40;;;3.33;;
11677;SDS011;5895;41.950;24.372;2022-10-26T08:30:53;12.43;;;3.15;;
11677;SDS011;5895;41.950;24.372;2022-10-26T08:33:20;9.38;;;3.22;;
11677;SDS011;5895;41.950;24.372;2022-10-26T08:35:48;7.68;;;3.17;;
11677;SDS011;5895;41.950;24.372;2022-10-26T08:38:20;9.82;;;3.42;;
11677;SDS011;5895;41.950;24.372;2022-10-26T08:40:49;13.85;;;3.58;;
11677;SDS011;5895;41.950;24.372;2022-10-26T08:43:18;10.18;;;3.05;;
11677;SDS011;5895;41.950;24.372;2022-10-26T08:45:51;10.95;;;3.33;;
11677;SDS011;5895;41.950;24.372;2022-10-26T08:48:24;9.65;;;3.20;;
11677;SDS011;5895;41.950;24.372;2022-10-26T08:50:58;9.38;;;3.63;;
11677;SDS011;5895;41.950;24.372;2022-10-26T08:53:29;10.02;;;3.45;;
11677;SDS011;5895;41.950;24.372;2022-10-26T08:56:05;9.15;;;3.55;;
11677;SDS011;5895;41.950;24.372;2022-10-26T08:58:39;10.60;;;3.55;;
11677;SDS011;5895;41.950;24.372;2022-10-26T09:01:11;12.40;;;3.90;;
11677;SDS011;5895;41.950;24.372;2022-10-26T09:03:38;12.80;;;3.60;;
11677;SDS011;5895;41.950;24.372;2022-10-26T09:06:12;14.20;;;3.72;;
11677;SDS011;5895;41.950;24.372;2022-10-26T09:08:48;10.63;;;4.20;;
11677;SDS011;5895;41.950;24.372;2022-10-26T09:11:27;10.85;;;3.90;;
11677;SDS011;5895;41.950;24.372;2022-10-26T09:14:10;8.35;;;3.28;;
11677;SDS011;5895;41.950;24.372;2022-10-26T09:16:46;11.00;;;3.13;;
11677;SDS011;5895;41.950;24.372;2022-10-26T09:19:26;10.35;;;3.30;;
11677;SDS011;5895;41.950;24.372;2022-10-26T09:22:03;12.55;;;3.90;;
11677;SDS011;5895;41.950;24.372;2022-10-26T09:24:37;9.00;;;3.33;;
11677;SDS011;5895;41.950;24.372;2022-10-26T09:27:11;9.77;;;3.15;;
11677;SDS011;5895;41.950;24.372;2022-10-26T09:29:46;8.93;;;3.28;;
11677;SDS011;5895;41.950;24.372;2022-10-26T09:32:16;6.03;;;3.10;;
11677;SDS011;5895;41.950;24.372;2022-10-26T09:34:46;8.50;;;3.40;;
11677;SDS011;5895;41.950;24.372;2022-10-26T09:37:16;10.73;;;3.70;;
11677;SDS011;5895;41.950;24.372;2022-10-26T09:39:48;13.82;;;3.85;;
11677;SDS011;5895;41.950;24.372;2022-10-26T09:42:26;7.15;;;2.80;;
11677;SDS011;5895;41.950;24.372;2022-10-26T09:45:00;9.35;;;3.25;;
11677;SDS011;5895;41.950;24.372;2022-10-26T09:47:33;14.15;;;3.33;;
11677;SDS011;5895;41.950;24.372;2022-10-26T09:50:06;8.75;;;3.00;;
11677;SDS011;5895;41.950;24.372;2022-10-26T09:52:45;12.13;;;3.47;;
11677;SDS011;5895;41.950;24.372;2022-10-26T09:55:13;9.50;;;3.65;;
11677;SDS011;5895;41.950;24.372;2022-10-26T09:57:42;9.38;;;3.55;;
11677;SDS011;5895;41.950;24.372;2022-10-26T10:00:12;9.27;;;3.17;;
11677;SDS011;5895;41.950;24.372;2022-10-26T10:02:41;11.90;;;3.20;;
11677;SDS011;5895;41.950;24.372;2022-10-26T10:05:22;10.98;;;3.28;;
11677;SDS011;5895;41.950;24.372;2022-10-26T10:08:10;9.55;;;3.35;;
11677;SDS011;5895;41.950;24.372;2022-10-26T10:10:55;7.95;;;3.10;;
11677;SDS011;5895;41.950;24.372;2022-10-26T10:13:27;9.52;;;3.60;;
11677;SDS011;5895;41.950;24.372;2022-10-26T10:15:58;8.75;;;3.30;;
11677;SDS011;5895;41.950;24.372;2022-10-26T10:18:31;6.63;;;3.10;;
11677;SDS011;5895;41.950;24.372;2022-10-26T10:20:59;13.05;;;3.58;;
11677;SDS011;5895;41.950;24.372;2022-10-26T10:23:28;7.70;;;2.95;;
11677;SDS011;5895;41.950;24.372;2022-10-26T10:26:01;7.82;;;2.88;;
11677;SDS011;5895;41.950;24.372;2022-10-26T10:28:31;14.85;;;3.35;;
11677;SDS011;5895;41.950;24.372;2022-10-26T10:31:00;13.68;;;3.03;;
11677;SDS011;5895;41.950;24.372;2022-10-26T10:33:36;7.78;;;3.10;;
11677;SDS011;5895;41.950;24.372;2022-10-26T10:36:06;10.38;;;3.40;;
11677;SDS011;5895;41.950;24.372;2022-10-26T10:38:36;9.52;;;2.97;;
11677;SDS011;5895;41.950;24.372;2022-10-26T10:41:05;8.70;;;3.15;;
11677;SDS011;5895;41.950;24.372;2022-10-26T10:43:44;7.10;;;3.33;;
11677;SDS011;5895;41.950;24.372;2022-10-26T10:46:16;10.55;;;3.03;;
11677;SDS011;5895;41.950;24.372;2022-10-26T10:48:46;15.00;;;4.53;;
11677;SDS011;5895;41.950;24.372;2022-10-26T10:51:17;8.80;;;3.30;;
11677;SDS011;5895;41.950;24.372;2022-10-26T10:53:47;14.00;;;3.85;;
11677;SDS011;5895;41.950;24.372;2022-10-26T10:56:30;9.77;;;3.35;;
11677;SDS011;5895;41.950;24.372;2022-10-26T10:59:05;14.25;;;5.50;;
11677;SDS011;5895;41.950;24.372;2022-10-26T11:01:49;10.38;;;4.20;;
11677;SDS011;5895;41.950;24.372;2022-10-26T11:04:34;11.73;;;2.97;;
11677;SDS011;5895;41.950;24.372;2022-10-26T11:07:19;9.13;;;3.03;;
11677;SDS011;5895;41.950;24.372;2022-10-26T11:09:49;7.25;;;2.92;;
11677;SDS011;5895;41.950;24.372;2022-10-26T11:12:20;8.80;;;3.28;;
11677;SDS011;5895;41.950;24.372;2022-10-26T11:14:54;10.07;;;3.20;;
11677;SDS011;5895;41.950;24.372;2022-10-26T11:17:26;8.93;;;2.55;;
11677;SDS011;5895;41.950;24.372;2022-10-26T11:19:57;7.57;;;2.58;;
11677;SDS011;5895;41.950;24.372;2022-10-26T11:22:29;7.35;;;3.10;;
11677;SDS011;5895;41.950;24.372;2022-10-26T11:25:02;4.85;;;2.60;;
11677;SDS011;5895;41.950;24.372;2022-10-26T11:27:33;6.38;;;2.42;;
11677;SDS011;5895;41.950;24.372;2022-10-26T11:30:12;12.70;;;2.67;;
11677;SDS011;5895;41.950;24.372;2022-10-26T11:32:46;7.32;;;2.70;;
11677;SDS011;5895;41.950;24.372;2022-10-26T11:35:18;10.68;;;3.55;;
11677;SDS011;5895;41.950;24.372;2022-10-26T11:37:52;6.53;;;2.88;;
11677;SDS011;5895;41.950;24.372;2022-10-26T11:40:28;7.10;;;2.60;;
11677;SDS011;5895;41.950;24.372;2022-10-26T11:43:02;5.13;;;2.65;;
11677;SDS011;5895;41.950;24.372;2022-10-26T11:45:41;4.03;;;2.38;;
11677;SDS011;5895;41.950;24.372;2022-10-26T11:48:13;4.97;;;2.92;;
11677;SDS011;5895;41.950;24.372;2022-10-26T11:50:47;9.25;;;2.83;;
11677;SDS011;5895;41.950;24.372;2022-10-26T11:53:18;6.35;;;2.97;;
11677;SDS011;5895;41.950;24.372;2022-10-26T11:55:50;7.07;;;2.40;;
11677;SDS011;5895;41.950;24.372;2022-10-26T11:58:20;7.70;;;2.85;;
11677;SDS011;5895;41.950;24.372;2022-10-26T12:00:52;7.20;;;2.83;;
11677;SDS011;5895;41.950;24.372;2022-10-26T12:03:24;8.82;;;2.53;;
11677;SDS011;5895;41.950;24.372;2022-10-26T12:05:54;9.30;;;2.65;;
11677;SDS011;5895;41.950;24.372;2022-10-26T12:08:22;10.75;;;2.78;;
11677;SDS011;5895;41.950;24.372;2022-10-26T12:10:54;9.63;;;3.22;;
11677;SDS011;5895;41.950;24.372;2022-10-26T12:13:29;11.73;;;2.88;;
11677;SDS011;5895;41.950;24.372;2022-10-26T12:16:03;6.50;;;2.40;;
11677;SDS011;5895;41.950;24.372;2022-10-26T12:18:40;7.22;;;2.80;;
11677;SDS011;5895;41.950;24.372;2022-10-26T12:21:12;7.88;;;2.83;;
11677;SDS011;5895;41.950;24.372;2022-10-26T12:23:52;11.82;;;3.03;;
11677;SDS011;5895;41.950;24.372;2022-10-26T12:29:27;6.82;;;2.80;;
11677;SDS011;5895;41.950;24.372;2022-10-26T12:32:02;7.90;;;2.85;;
11677;SDS011;5895;41.950;24.372;2022-10-26T12:37:31;5.63;;;2.58;;
11677;SDS011;5895;41.950;24.372;2022-10-26T12:52:18;9.60;;;2.80;;
11677;SDS011;5895;41.950;24.372;2022-10-26T12:54:51;9.40;;;2.58;;
11677;SDS011;5895;41.950;24.372;2022-10-26T12:57:40;5.47;;;2.20;;
11677;SDS011;5895;41.950;24.372;2022-10-26T13:00:16;9.02;;;2.85;;
11677;SDS011;5895;41.950;24.372;2022-10-26T13:02:51;8.07;;;2.85;;
11677;SDS011;5895;41.950;24.372;2022-10-26T13:05:33;5.75;;;2.40;;
11677;SDS011;5895;41.950;24.372;2022-10-26T13:08:26;6.00;;;2.40;;
11677;SDS011;5895;41.950;24.372;2022-10-26T13:11:00;6.82;;;2.47;;
11677;SDS011;5895;41.950;24.372;2022-10-26T13:13:29;6.63;;;2.47;;
11677;SDS011;5895;41.950;24.372;2022-10-26T13:15:58;7.53;;;2.22;;
11677;SDS011;5895;41.950;24.372;2022-10-26T13:18:27;6.95;;;2.30;;
11677;SDS011;5895;41.950;24.372;2022-10-26T13:20:58;4.68;;;2.17;;
11677;SDS011;5895;41.950;24.372;2022-10-26T13:23:32;5.85;;;2.28;;
11677;SDS011;5895;41.950;24.372;2022-10-26T13:26:04;10.45;;;2.70;;
11677;SDS011;5895;41.950;24.372;2022-10-26T13:28:44;4.85;;;2.17;;
11677;SDS011;5895;41.950;24.372;2022-10-26T13:31:19;8.07;;;2.53;;
11677;SDS011;5895;41.950;24.372;2022-10-26T13:34:22;5.07;;;2.20;;
11677;SDS011;5895;41.950;24.372;2022-10-26T13:36:52;7.90;;;2.33;;
11677;SDS011;5895;41.950;24.372;2022-10-26T13:39:29;4.18;;;2.20;;
11677;SDS011;5895;41.950;24.372;2022-10-26T13:42:01;7.82;;;2.22;;
11677;SDS011;5895;41.950;24.372;2022-10-26T13:44:30;6.32;;;4.03;;
11677;SDS011;5895;41.950;24.372;2022-10-26T13:47:02;6.30;;;2.53;;
11677;SDS011;5895;41.950;24.372;2022-10-26T13:49:35;18.17;;;3.25;;
11677;SDS011;5895;41.950;24.372;2022-10-26T13:52:14;8.00;;;2.67;;
11677;SDS011;5895;41.950;24.372;2022-10-26T13:54:47;3.20;;;2.10;;
11677;SDS011;5895;41.950;24.372;2022-10-26T13:57:21;5.25;;;2.45;;
11677;SDS011;5895;41.950;24.372;2022-10-26T13:59:55;6.65;;;2.30;;
11677;SDS011;5895;41.950;24.372;2022-10-26T14:02:24;5.57;;;2.47;;
11677;SDS011;5895;41.950;24.372;2022-10-26T14:04:58;5.40;;;2.25;;
11677;SDS011;5895;41.950;24.372;2022-10-26T14:07:28;6.68;;;3.00;;
11677;SDS011;5895;41.950;24.372;2022-10-26T14:10:04;4.13;;;2.25;;
11677;SDS011;5895;41.950;24.372;2022-10-26T14:12:31;7.57;;;2.63;;
11677;SDS011;5895;41.950;24.372;2022-10-26T14:15:01;3.97;;;2.33;;
11677;SDS011;5895;41.950;24.372;2022-10-26T14:17:32;2.63;;;2.20;;
11677;SDS011;5895;41.950;24.372;2022-10-26T14:20:00;6.53;;;2.20;;
11677;SDS011;5895;41.950;24.372;2022-10-26T14:22:29;5.53;;;2.20;;
11677;SDS011;5895;41.950;24.372;2022-10-26T14:24:57;2.72;;;1.92;;
11677;SDS011;5895;41.950;24.372;2022-10-26T14:27:26;4.32;;;2.10;;
11677;SDS011;5895;41.950;24.372;2022-10-26T14:29:58;5.18;;;2.20;;
11677;SDS011;5895;41.950;24.372;2022-10-26T14:32:28;6.40;;;2.05;;
11677;SDS011;5895;41.950;24.372;2022-10-26T14:34:57;4.07;;;2.13;;
11677;SDS011;5895;41.950;24.372;2022-10-26T14:37:29;5.30;;;2.50;;
11677;SDS011;5895;41.950;24.372;2022-10-26T14:40:04;5.43;;;2.30;;
11677;SDS011;5895;41.950;24.372;2022-10-26T14:42:36;4.82;;;2.28;;
11677;SDS011;5895;41.950;24.372;2022-10-26T14:45:17;4.13;;;1.90;;
11677;SDS011;5895;41.950;24.372;2022-10-26T14:47:48;5.85;;;2.10;;
11677;SDS011;5895;41.950;24.372;2022-10-26T14:50:16;3.90;;;2.17;;
11677;SDS011;5895;41.950;24.372;2022-10-26T14:52:48;3.70;;;2.25;;
11677;SDS011;5895;41.950;24.372;2022-10-26T14:55:17;5.05;;;3.00;;
11677;SDS011;5895;41.950;24.372;2022-10-26T14:57:46;7.30;;;2.63;;
11677;SDS011;5895;41.950;24.372;2022-10-26T15:00:17;14.85;;;3.17;;
11677;SDS011;5895;41.950;24.372;2022-10-26T15:02:46;12.25;;;2.78;;
11677;SDS011;5895;41.950;24.372;2022-10-26T15:05:16;9.02;;;4.82;;
11677;SDS011;5895;41.950;24.372;2022-10-26T15:07:45;13.52;;;3.90;;
11677;SDS011;5895;41.950;24.372;2022-10-26T15:13:19;10.48;;;3.65;;
11677;SDS011;5895;41.950;24.372;2022-10-26T15:15:49;9.60;;;8.02;;
11677;SDS011;5895;41.950;24.372;2022-10-26T15:18:19;7.22;;;5.35;;
11677;SDS011;5895;41.950;24.372;2022-10-26T15:20:49;10.85;;;4.90;;
11677;SDS011;5895;41.950;24.372;2022-10-26T15:23:17;4.85;;;4.10;;
11677;SDS011;5895;41.950;24.372;2022-10-26T15:25:50;6.40;;;3.42;;
11677;SDS011;5895;41.950;24.372;2022-10-26T15:28:22;6.55;;;3.40;;